sensor_id;sensor_type;location;lat;lon;timestamp;temperature;humidity
11446;DHT22;5779;64.178;15.432;2024-01-30T00:02:07;3.70;99.90
11446;DHT22;5779;64.178;15.432;2024-01-30T00:04:53;3.70;99.90
11446;DHT22;5779;64.178;15.432;2024-01-30T00:07:40;3.90;99.90
11446;DHT22;5779;64.178;15.432;2024-01-30T00:10:28;3.80;99.90
11446;DHT22;5779;64.178;15.432;2024-01-30T00:13:15;4.00;99.90
11446;DHT22;5779;64.178;15.432;2024-01-30T00:16:04;4.00;99.90
11446;DHT22;5779;64.178;15.432;2024-01-30T00:18:51;4.10;99.90
11446;DHT22;5779;64.178;15.432;2024-01-30T00:21:38;4.00;99.90
11446;DHT22;5779;64.178;15.432;2024-01-30T00:24:25;3.90;99.90
11446;DHT22;5779;64.178;15.432;2024-01-30T00:27:13;3.90;99.90
11446;DHT22;5779;64.178;15.432;2024-01-30T00:30:00;3.90;99.90
11446;DHT22;5779;64.178;15.432;2024-01-30T00:32:47;3.80;99.90
11446;DHT22;5779;64.178;15.432;2024-01-30T00:35:34;3.90;99.90
11446;DHT22;5779;64.178;15.432;2024-01-30T00:38:20;4.00;99.90
11446;DHT22;5779;64.178;15.432;2024-01-30T00:41:08;4.10;99.90
11446;DHT22;5779;64.178;15.432;2024-01-30T00:43:56;4.10;99.90
11446;DHT22;5779;64.178;15.432;2024-01-30T00:46:43;4.00;99.90
11446;DHT22;5779;64.178;15.432;2024-01-30T00:49:30;4.00;99.90
11446;DHT22;5779;64.178;15.432;2024-01-30T00:52:16;3.90;99.90
11446;DHT22;5779;64.178;15.432;2024-01-30T00:55:04;4.00;99.90
11446;DHT22;5779;64.178;15.432;2024-01-30T00:57:51;4.10;99.90
11446;DHT22;5779;64.178;15.432;2024-01-30T01:00:39;4.10;99.90
11446;DHT22;5779;64.178;15.432;2024-01-30T01:03:28;3.90;99.90
11446;DHT22;5779;64.178;15.432;2024-01-30T01:06:14;3.90;99.90
11446;DHT22;5779;64.178;15.432;2024-01-30T01:09:01;3.80;99.90
11446;DHT22;5779;64.178;15.432;2024-01-30T01:11:48;3.80;99.90
11446;DHT22;5779;64.178;15.432;2024-01-30T01:14:35;3.80;99.90
11446;DHT22;5779;64.178;15.432;2024-01-30T01:17:23;3.60;99.90
11446;DHT22;5779;64.178;15.432;2024-01-30T01:20:10;3.60;99.90
11446;DHT22;5779;64.178;15.432;2024-01-30T01:22:57;3.80;99.90
11446;DHT22;5779;64.178;15.432;2024-01-30T01:25:44;3.80;99.90
11446;DHT22;5779;64.178;15.432;2024-01-30T01:28:31;3.80;99.90
11446;DHT22;5779;64.178;15.432;2024-01-30T01:31:17;3.60;99.90
11446;DHT22;5779;64.178;15.432;2024-01-30T01:34:06;3.60;99.90
11446;DHT22;5779;64.178;15.432;2024-01-30T01:36:53;3.80;99.90
11446;DHT22;5779;64.178;15.432;2024-01-30T01:39:40;3.80;99.90
11446;DHT22;5779;64.178;15.432;2024-01-30T01:42:27;3.80;99.90
11446;DHT22;5779;64.178;15.432;2024-01-30T01:45:13;3.80;99.90
11446;DHT22;5779;64.178;15.432;2024-01-30T01:48:01;3.90;99.90
11446;DHT22;5779;64.178;15.432;2024-01-30T01:50:49;3.90;99.90
11446;DHT22;5779;64.178;15.432;2024-01-30T01:53:36;4.00;99.90
11446;DHT22;5779;64.178;15.432;2024-01-30T01:56:23;4.00;99.90
11446;DHT22;5779;64.178;15.432;2024-01-30T01:59:11;3.90;99.90
11446;DHT22;5779;64.178;15.432;2024-01-30T02:01:58;3.90;99.90
11446;DHT22;5779;64.178;15.432;2024-01-30T02:04:44;3.80;99.90
11446;DHT22;5779;64.178;15.432;2024-01-30T02:07:33;3.80;99.90
11446;DHT22;5779;64.178;15.432;2024-01-30T02:10:20;3.60;99.90
11446;DHT22;5779;64.178;15.432;2024-01-30T02:13:06;3.60;99.90
11446;DHT22;5779;64.178;15.432;2024-01-30T02:15:53;3.70;99.90
11446;DHT22;5779;64.178;15.432;2024-01-30T02:18:40;3.70;99.90
11446;DHT22;5779;64.178;15.432;2024-01-30T02:21:30;3.70;99.90
11446;DHT22;5779;64.178;15.432;2024-01-30T02:24:17;3.70;99.90
11446;DHT22;5779;64.178;15.432;2024-01-30T02:27:04;3.70;99.90
11446;DHT22;5779;64.178;15.432;2024-01-30T02:29:50;3.80;99.90
11446;DHT22;5779;64.178;15.432;2024-01-30T02:32:37;3.80;99.90
11446;DHT22;5779;64.178;15.432;2024-01-30T02:35:23;3.90;99.90
11446;DHT22;5779;64.178;15.432;2024-01-30T02:38:11;3.90;99.90
11446;DHT22;5779;64.178;15.432;2024-01-30T02:40:58;3.80;99.90
11446;DHT22;5779;64.178;15.432;2024-01-30T02:43:45;3.90;99.90
11446;DHT22;5779;64.178;15.432;2024-01-30T02:46:32;4.10;99.90
11446;DHT22;5779;64.178;15.432;2024-01-30T02:49:19;4.00;99.90
11446;DHT22;5779;64.178;15.432;2024-01-30T02:52:05;4.00;99.90
11446;DHT22;5779;64.178;15.432;2024-01-30T02:54:53;3.90;99.90
11446;DHT22;5779;64.178;15.432;2024-01-30T02:57:40;3.80;99.90
11446;DHT22;5779;64.178;15.432;2024-01-30T03:00:27;3.70;99.90
11446;DHT22;5779;64.178;15.432;2024-01-30T03:03:15;3.60;99.90
11446;DHT22;5779;64.178;15.432;2024-01-30T03:06:02;3.70;99.90
11446;DHT22;5779;64.178;15.432;2024-01-30T03:08:49;3.60;99.90
11446;DHT22;5779;64.178;15.432;2024-01-30T03:11:37;3.70;99.90
11446;DHT22;5779;64.178;15.432;2024-01-30T03:14:24;3.70;99.90
11446;DHT22;5779;64.178;15.432;2024-01-30T03:17:11;3.70;99.90
11446;DHT22;5779;64.178;15.432;2024-01-30T03:19:58;3.70;99.90
11446;DHT22;5779;64.178;15.432;2024-01-30T03:22:44;3.60;99.90
11446;DHT22;5779;64.178;15.432;2024-01-30T03:25:31;3.60;99.90
11446;DHT22;5779;64.178;15.432;2024-01-30T03:28:19;3.40;99.90
11446;DHT22;5779;64.178;15.432;2024-01-30T03:31:06;3.40;99.90
11446;DHT22;5779;64.178;15.432;2024-01-30T03:33:53;3.40;99.90
11446;DHT22;5779;64.178;15.432;2024-01-30T03:36:39;3.40;99.90
11446;DHT22;5779;64.178;15.432;2024-01-30T03:39:26;3.30;99.90
11446;DHT22;5779;64.178;15.432;2024-01-30T03:42:12;3.40;99.90
11446;DHT22;5779;64.178;15.432;2024-01-30T03:45:01;3.50;99.90
11446;DHT22;5779;64.178;15.432;2024-01-30T03:47:47;3.50;99.90
11446;DHT22;5779;64.178;15.432;2024-01-30T03:50:34;3.50;99.90
11446;DHT22;5779;64.178;15.432;2024-01-30T03:53:21;3.60;99.90
11446;DHT22;5779;64.178;15.432;2024-01-30T03:56:08;3.70;99.90
11446;DHT22;5779;64.178;15.432;2024-01-30T03:58:55;3.60;99.90
11446;DHT22;5779;64.178;15.432;2024-01-30T04:01:46;3.70;99.90
11446;DHT22;5779;64.178;15.432;2024-01-30T04:04:32;3.50;99.90
11446;DHT22;5779;64.178;15.432;2024-01-30T04:07:19;3.60;99.90
11446;DHT22;5779;64.178;15.432;2024-01-30T04:10:07;3.70;99.90
11446;DHT22;5779;64.178;15.432;2024-01-30T04:12:53;3.60;99.90
11446;DHT22;5779;64.178;15.432;2024-01-30T04:15:40;3.60;99.90
11446;DHT22;5779;64.178;15.432;2024-01-30T04:18:28;3.60;99.90
11446;DHT22;5779;64.178;15.432;2024-01-30T04:21:15;3.60;99.90
11446;DHT22;5779;64.178;15.432;2024-01-30T04:24:03;3.70;99.90
11446;DHT22;5779;64.178;15.432;2024-01-30T04:26:49;3.80;99.90
11446;DHT22;5779;64.178;15.432;2024-01-30T04:29:36;3.90;99.90
11446;DHT22;5779;64.178;15.432;2024-01-30T04:32:22;3.80;99.90
11446;DHT22;5779;64.178;15.432;2024-01-30T04:35:11;3.80;99.90
11446;DHT22;5779;64.178;15.432;2024-01-30T04:37:57;3.70;99.90
11446;DHT22;5779;64.178;15.432;2024-01-30T04:40:44;3.70;99.90
11446;DHT22;5779;64.178;15.432;2024-01-30T04:43:31;3.70;99.90
11446;DHT22;5779;64.178;15.432;2024-01-30T04:46:17;3.60;99.90
11446;DHT22;5779;64.178;15.432;2024-01-30T04:49:03;3.60;99.90
11446;DHT22;5779;64.178;15.432;2024-01-30T04:51:54;3.80;99.90
11446;DHT22;5779;64.178;15.432;2024-01-30T04:54:40;3.80;99.90
11446;DHT22;5779;64.178;15.432;2024-01-30T04:57:27;3.70;99.90
11446;DHT22;5779;64.178;15.432;2024-01-30T05:00:14;3.70;99.90
11446;DHT22;5779;64.178;15.432;2024-01-30T05:03:01;3.60;99.90
11446;DHT22;5779;64.178;15.432;2024-01-30T05:05:47;3.00;99.90
11446;DHT22;5779;64.178;15.432;2024-01-30T05:08:35;1.80;99.90
11446;DHT22;5779;64.178;15.432;2024-01-30T05:11:22;1.40;99.90
11446;DHT22;5779;64.178;15.432;2024-01-30T05:14:09;1.10;99.90
11446;DHT22;5779;64.178;15.432;2024-01-30T05:16:56;1.10;99.90
11446;DHT22;5779;64.178;15.432;2024-01-30T05:19:43;1.00;99.90
11446;DHT22;5779;64.178;15.432;2024-01-30T05:22:30;1.20;99.90
11446;DHT22;5779;64.178;15.432;2024-01-30T05:25:18;1.60;99.90
11446;DHT22;5779;64.178;15.432;2024-01-30T05:28:05;1.70;99.90
11446;DHT22;5779;64.178;15.432;2024-01-30T05:30:52;1.80;99.90
11446;DHT22;5779;64.178;15.432;2024-01-30T05:33:40;1.90;99.90
11446;DHT22;5779;64.178;15.432;2024-01-30T05:36:27;2.00;99.90
11446;DHT22;5779;64.178;15.432;2024-01-30T05:39:14;2.20;99.90
11446;DHT22;5779;64.178;15.432;2024-01-30T05:42:02;2.20;99.90
11446;DHT22;5779;64.178;15.432;2024-01-30T05:44:49;2.20;99.90
11446;DHT22;5779;64.178;15.432;2024-01-30T05:47:35;2.20;99.90
11446;DHT22;5779;64.178;15.432;2024-01-30T05:50:22;2.30;99.90
11446;DHT22;5779;64.178;15.432;2024-01-30T05:53:10;2.50;99.90
11446;DHT22;5779;64.178;15.432;2024-01-30T05:55:56;2.40;99.90
11446;DHT22;5779;64.178;15.432;2024-01-30T05:58:45;2.40;99.90
11446;DHT22;5779;64.178;15.432;2024-01-30T06:01:31;2.40;99.90
11446;DHT22;5779;64.178;15.432;2024-01-30T06:04:21;2.40;99.90
11446;DHT22;5779;64.178;15.432;2024-01-30T06:07:07;2.30;99.90
11446;DHT22;5779;64.178;15.432;2024-01-30T06:09:54;2.40;99.90
11446;DHT22;5779;64.178;15.432;2024-01-30T06:12:40;2.40;99.90
11446;DHT22;5779;64.178;15.432;2024-01-30T06:15:28;2.40;99.90
11446;DHT22;5779;64.178;15.432;2024-01-30T06:18:16;2.60;99.90
11446;DHT22;5779;64.178;15.432;2024-01-30T06:21:04;2.60;99.90
11446;DHT22;5779;64.178;15.432;2024-01-30T06:23:51;2.50;99.90
11446;DHT22;5779;64.178;15.432;2024-01-30T06:26:38;2.50;99.90
11446;DHT22;5779;64.178;15.432;2024-01-30T06:29:24;2.40;99.90
11446;DHT22;5779;64.178;15.432;2024-01-30T06:32:13;2.30;99.90
11446;DHT22;5779;64.178;15.432;2024-01-30T06:34:59;2.30;99.90
11446;DHT22;5779;64.178;15.432;2024-01-30T06:37:45;2.20;99.90
11446;DHT22;5779;64.178;15.432;2024-01-30T06:40:32;2.10;99.90
11446;DHT22;5779;64.178;15.432;2024-01-30T06:43:19;1.80;99.90
11446;DHT22;5779;64.178;15.432;2024-01-30T06:46:05;1.60;99.90
11446;DHT22;5779;64.178;15.432;2024-01-30T06:48:53;1.40;99.90
11446;DHT22;5779;64.178;15.432;2024-01-30T06:51:40;1.30;99.90
11446;DHT22;5779;64.178;15.432;2024-01-30T06:54:32;1.10;99.90
11446;DHT22;5779;64.178;15.432;2024-01-30T06:57:23;1.10;99.90
11446;DHT22;5779;64.178;15.432;2024-01-30T07:00:16;1.00;99.90
11446;DHT22;5779;64.178;15.432;2024-01-30T07:03:05;0.70;99.90
11446;DHT22;5779;64.178;15.432;2024-01-30T07:05:57;0.60;99.90
11446;DHT22;5779;64.178;15.432;2024-01-30T07:08:46;0.60;99.90
11446;DHT22;5779;64.178;15.432;2024-01-30T07:11:35;0.20;99.90
11446;DHT22;5779;64.178;15.432;2024-01-30T07:14:23;0.00;99.90
11446;DHT22;5779;64.178;15.432;2024-01-30T07:17:16;-0.20;99.90
11446;DHT22;5779;64.178;15.432;2024-01-30T07:20:06;-0.20;99.90
11446;DHT22;5779;64.178;15.432;2024-01-30T07:22:57;0.00;99.90
11446;DHT22;5779;64.178;15.432;2024-01-30T07:25:47;0.10;99.90
11446;DHT22;5779;64.178;15.432;2024-01-30T07:28:35;0.50;99.90
11446;DHT22;5779;64.178;15.432;2024-01-30T07:31:26;0.80;99.90
11446;DHT22;5779;64.178;15.432;2024-01-30T07:34:13;1.10;99.90
11446;DHT22;5779;64.178;15.432;2024-01-30T07:37:02;1.40;99.90
11446;DHT22;5779;64.178;15.432;2024-01-30T07:39:53;1.70;99.90
11446;DHT22;5779;64.178;15.432;2024-01-30T07:42:41;1.70;99.90
11446;DHT22;5779;64.178;15.432;2024-01-30T07:45:30;1.50;99.90
11446;DHT22;5779;64.178;15.432;2024-01-30T07:48:22;1.50;99.90
11446;DHT22;5779;64.178;15.432;2024-01-30T07:51:10;1.50;99.90
11446;DHT22;5779;64.178;15.432;2024-01-30T07:53:58;1.40;99.90
11446;DHT22;5779;64.178;15.432;2024-01-30T07:56:49;1.30;99.90
11446;DHT22;5779;64.178;15.432;2024-01-30T07:59:36;1.20;99.90
11446;DHT22;5779;64.178;15.432;2024-01-30T08:02:27;1.00;99.90
11446;DHT22;5779;64.178;15.432;2024-01-30T08:05:20;0.80;99.90
11446;DHT22;5779;64.178;15.432;2024-01-30T08:08:13;0.70;99.90
11446;DHT22;5779;64.178;15.432;2024-01-30T08:11:06;1.00;99.90
11446;DHT22;5779;64.178;15.432;2024-01-30T08:13:54;0.90;99.90
11446;DHT22;5779;64.178;15.432;2024-01-30T08:16:41;0.70;99.90
11446;DHT22;5779;64.178;15.432;2024-01-30T08:19:28;0.70;99.90
11446;DHT22;5779;64.178;15.432;2024-01-30T08:22:16;0.70;99.90
11446;DHT22;5779;64.178;15.432;2024-01-30T08:25:04;0.70;99.90
11446;DHT22;5779;64.178;15.432;2024-01-30T08:27:51;0.90;99.90
11446;DHT22;5779;64.178;15.432;2024-01-30T08:30:40;1.20;99.90
11446;DHT22;5779;64.178;15.432;2024-01-30T08:33:28;1.50;99.90
11446;DHT22;5779;64.178;15.432;2024-01-30T08:36:16;1.70;99.90
11446;DHT22;5779;64.178;15.432;2024-01-30T08:39:05;1.80;99.90
11446;DHT22;5779;64.178;15.432;2024-01-30T08:41:53;1.90;99.90
11446;DHT22;5779;64.178;15.432;2024-01-30T08:44:40;1.90;99.90
11446;DHT22;5779;64.178;15.432;2024-01-30T08:47:30;2.00;99.90
11446;DHT22;5779;64.178;15.432;2024-01-30T08:50:20;2.10;99.90
11446;DHT22;5779;64.178;15.432;2024-01-30T08:53:08;2.00;99.90
11446;DHT22;5779;64.178;15.432;2024-01-30T08:55:58;1.90;99.90
11446;DHT22;5779;64.178;15.432;2024-01-30T08:58:46;1.70;99.90
11446;DHT22;5779;64.178;15.432;2024-01-30T09:01:35;1.50;99.90
11446;DHT22;5779;64.178;15.432;2024-01-30T09:04:29;1.50;99.90
11446;DHT22;5779;64.178;15.432;2024-01-30T09:07:18;1.50;99.90
11446;DHT22;5779;64.178;15.432;2024-01-30T09:10:09;1.90;99.90
11446;DHT22;5779;64.178;15.432;2024-01-30T09:12:56;2.10;99.90
11446;DHT22;5779;64.178;15.432;2024-01-30T09:15:47;2.20;99.90
11446;DHT22;5779;64.178;15.432;2024-01-30T09:18:37;2.30;99.90
11446;DHT22;5779;64.178;15.432;2024-01-30T09:21:28;2.40;99.90
11446;DHT22;5779;64.178;15.432;2024-01-30T09:24:20;2.60;99.90
11446;DHT22;5779;64.178;15.432;2024-01-30T09:27:13;2.70;99.90
11446;DHT22;5779;64.178;15.432;2024-01-30T09:30:02;2.70;99.90
11446;DHT22;5779;64.178;15.432;2024-01-30T09:32:51;2.10;99.90
11446;DHT22;5779;64.178;15.432;2024-01-30T09:35:41;1.40;99.90
11446;DHT22;5779;64.178;15.432;2024-01-30T09:38:30;1.20;99.90
11446;DHT22;5779;64.178;15.432;2024-01-30T09:41:24;1.20;99.90
11446;DHT22;5779;64.178;15.432;2024-01-30T09:44:14;1.30;99.90
11446;DHT22;5779;64.178;15.432;2024-01-30T09:47:07;1.30;99.90
11446;DHT22;5779;64.178;15.432;2024-01-30T09:49:55;1.40;99.90
11446;DHT22;5779;64.178;15.432;2024-01-30T09:52:45;1.40;99.90
11446;DHT22;5779;64.178;15.432;2024-01-30T09:55:36;1.50;99.90
11446;DHT22;5779;64.178;15.432;2024-01-30T09:58:24;1.50;99.90
11446;DHT22;5779;64.178;15.432;2024-01-30T10:01:11;1.50;99.90
11446;DHT22;5779;64.178;15.432;2024-01-30T10:03:59;1.40;99.90
11446;DHT22;5779;64.178;15.432;2024-01-30T10:06:50;1.20;99.90
11446;DHT22;5779;64.178;15.432;2024-01-30T10:09:43;1.20;99.90
11446;DHT22;5779;64.178;15.432;2024-01-30T10:12:31;1.20;99.90
11446;DHT22;5779;64.178;15.432;2024-01-30T10:15:17;1.20;99.90
11446;DHT22;5779;64.178;15.432;2024-01-30T10:18:05;1.10;99.90
11446;DHT22;5779;64.178;15.432;2024-01-30T10:20:52;1.10;99.90
11446;DHT22;5779;64.178;15.432;2024-01-30T10:23:38;1.10;99.90
11446;DHT22;5779;64.178;15.432;2024-01-30T10:26:25;1.30;99.90
11446;DHT22;5779;64.178;15.432;2024-01-30T10:29:13;1.30;99.90
11446;DHT22;5779;64.178;15.432;2024-01-30T10:32:00;1.30;99.90
11446;DHT22;5779;64.178;15.432;2024-01-30T10:34:47;1.40;99.90
11446;DHT22;5779;64.178;15.432;2024-01-30T10:37:34;1.40;99.90
11446;DHT22;5779;64.178;15.432;2024-01-30T10:40:21;1.40;99.90
11446;DHT22;5779;64.178;15.432;2024-01-30T10:43:15;1.20;99.90
11446;DHT22;5779;64.178;15.432;2024-01-30T10:46:10;1.10;99.90
11446;DHT22;5779;64.178;15.432;2024-01-30T10:48:59;0.90;99.90
11446;DHT22;5779;64.178;15.432;2024-01-30T10:51:45;0.90;99.90
11446;DHT22;5779;64.178;15.432;2024-01-30T10:54:35;0.90;99.90
11446;DHT22;5779;64.178;15.432;2024-01-30T10:57:23;1.00;99.90
11446;DHT22;5779;64.178;15.432;2024-01-30T11:00:11;1.20;99.90
11446;DHT22;5779;64.178;15.432;2024-01-30T11:03:07;1.30;99.90
11446;DHT22;5779;64.178;15.432;2024-01-30T11:05:58;1.30;99.90
11446;DHT22;5779;64.178;15.432;2024-01-30T11:08:45;1.40;99.90
11446;DHT22;5779;64.178;15.432;2024-01-30T11:11:32;1.40;99.90
11446;DHT22;5779;64.178;15.432;2024-01-30T11:14:33;1.50;99.90
11446;DHT22;5779;64.178;15.432;2024-01-30T11:17:20;1.60;99.90
11446;DHT22;5779;64.178;15.432;2024-01-30T11:20:11;1.60;99.90
11446;DHT22;5779;64.178;15.432;2024-01-30T11:22:59;1.40;99.90
11446;DHT22;5779;64.178;15.432;2024-01-30T11:25:52;1.20;99.90
11446;DHT22;5779;64.178;15.432;2024-01-30T11:28:39;1.20;99.90
11446;DHT22;5779;64.178;15.432;2024-01-30T11:31:26;1.20;99.90
11446;DHT22;5779;64.178;15.432;2024-01-30T11:34:14;1.20;99.90
11446;DHT22;5779;64.178;15.432;2024-01-30T11:37:05;1.20;99.90
11446;DHT22;5779;64.178;15.432;2024-01-30T11:39:56;1.20;99.90
11446;DHT22;5779;64.178;15.432;2024-01-30T11:42:43;1.30;99.90
11446;DHT22;5779;64.178;15.432;2024-01-30T11:45:30;1.30;99.90
11446;DHT22;5779;64.178;15.432;2024-01-30T11:48:17;1.20;99.90
11446;DHT22;5779;64.178;15.432;2024-01-30T11:51:04;1.10;99.90
11446;DHT22;5779;64.178;15.432;2024-01-30T11:53:53;1.10;99.90
11446;DHT22;5779;64.178;15.432;2024-01-30T11:56:39;1.10;99.90
11446;DHT22;5779;64.178;15.432;2024-01-30T11:59:26;1.10;99.90
11446;DHT22;5779;64.178;15.432;2024-01-30T12:02:16;1.10;99.90
11446;DHT22;5779;64.178;15.432;2024-01-30T12:05:07;1.10;99.90
11446;DHT22;5779;64.178;15.432;2024-01-30T12:07:59;1.20;99.90
11446;DHT22;5779;64.178;15.432;2024-01-30T12:10:55;1.20;99.90
11446;DHT22;5779;64.178;15.432;2024-01-30T12:13:42;1.20;99.90
11446;DHT22;5779;64.178;15.432;2024-01-30T12:16:29;1.30;99.90
11446;DHT22;5779;64.178;15.432;2024-01-30T12:19:23;1.30;99.90
11446;DHT22;5779;64.178;15.432;2024-01-30T12:22:11;1.40;99.90
11446;DHT22;5779;64.178;15.432;2024-01-30T12:24:57;1.40;99.90
11446;DHT22;5779;64.178;15.432;2024-01-30T12:27:48;1.50;99.90
11446;DHT22;5779;64.178;15.432;2024-01-30T12:30:38;1.60;99.90
11446;DHT22;5779;64.178;15.432;2024-01-30T12:33:28;1.60;99.90
11446;DHT22;5779;64.178;15.432;2024-01-30T12:36:17;1.70;99.90
11446;DHT22;5779;64.178;15.432;2024-01-30T12:39:06;1.60;99.90
11446;DHT22;5779;64.178;15.432;2024-01-30T12:41:55;1.60;99.90
11446;DHT22;5779;64.178;15.432;2024-01-30T12:44:46;1.60;99.90
11446;DHT22;5779;64.178;15.432;2024-01-30T12:47:34;1.50;99.90
11446;DHT22;5779;64.178;15.432;2024-01-30T12:50:20;1.60;99.90
11446;DHT22;5779;64.178;15.432;2024-01-30T12:53:13;1.60;99.90
11446;DHT22;5779;64.178;15.432;2024-01-30T12:56:00;1.70;99.90
11446;DHT22;5779;64.178;15.432;2024-01-30T12:58:48;1.90;99.90
11446;DHT22;5779;64.178;15.432;2024-01-30T13:01:37;2.00;99.90
11446;DHT22;5779;64.178;15.432;2024-01-30T13:04:30;2.20;99.90
11446;DHT22;5779;64.178;15.432;2024-01-30T13:07:20;2.30;99.90
11446;DHT22;5779;64.178;15.432;2024-01-30T13:10:07;2.10;99.90
11446;DHT22;5779;64.178;15.432;2024-01-30T13:12:55;1.90;99.90
11446;DHT22;5779;64.178;15.432;2024-01-30T13:15:44;1.80;99.90
11446;DHT22;5779;64.178;15.432;2024-01-30T13:18:34;1.80;99.90
11446;DHT22;5779;64.178;15.432;2024-01-30T13:21:21;1.80;99.90
11446;DHT22;5779;64.178;15.432;2024-01-30T13:24:13;1.70;99.90
11446;DHT22;5779;64.178;15.432;2024-01-30T13:26:59;1.40;99.90
11446;DHT22;5779;64.178;15.432;2024-01-30T13:29:47;1.20;99.90
11446;DHT22;5779;64.178;15.432;2024-01-30T13:32:36;1.00;99.90
11446;DHT22;5779;64.178;15.432;2024-01-30T13:35:28;0.90;99.90
11446;DHT22;5779;64.178;15.432;2024-01-30T13:38:15;0.90;99.90
11446;DHT22;5779;64.178;15.432;2024-01-30T13:41:01;0.70;99.90
11446;DHT22;5779;64.178;15.432;2024-01-30T13:43:48;0.60;99.90
11446;DHT22;5779;64.178;15.432;2024-01-30T13:46:40;0.60;99.90
11446;DHT22;5779;64.178;15.432;2024-01-30T13:49:28;0.50;99.90
11446;DHT22;5779;64.178;15.432;2024-01-30T13:52:18;0.50;99.90
11446;DHT22;5779;64.178;15.432;2024-01-30T13:55:06;0.50;99.90
11446;DHT22;5779;64.178;15.432;2024-01-30T13:57:55;0.50;99.90
11446;DHT22;5779;64.178;15.432;2024-01-30T14:00:42;0.70;99.90
11446;DHT22;5779;64.178;15.432;2024-01-30T14:03:34;0.80;99.90
11446;DHT22;5779;64.178;15.432;2024-01-30T14:06:22;0.90;99.90
11446;DHT22;5779;64.178;15.432;2024-01-30T14:09:10;0.80;99.90
11446;DHT22;5779;64.178;15.432;2024-01-30T14:12:00;0.80;99.90
11446;DHT22;5779;64.178;15.432;2024-01-30T14:14:52;0.40;99.90
11446;DHT22;5779;64.178;15.432;2024-01-30T14:17:41;0.40;99.90
11446;DHT22;5779;64.178;15.432;2024-01-30T14:20:30;0.20;99.90
11446;DHT22;5779;64.178;15.432;2024-01-30T14:23:18;0.10;99.90
11446;DHT22;5779;64.178;15.432;2024-01-30T14:26:06;0.20;99.90
11446;DHT22;5779;64.178;15.432;2024-01-30T14:28:54;0.10;99.90
11446;DHT22;5779;64.178;15.432;2024-01-30T14:31:45;0.10;99.90
11446;DHT22;5779;64.178;15.432;2024-01-30T14:34:37;-0.10;99.90
11446;DHT22;5779;64.178;15.432;2024-01-30T14:37:27;-0.40;99.90
11446;DHT22;5779;64.178;15.432;2024-01-30T14:40:15;-0.50;99.90
11446;DHT22;5779;64.178;15.432;2024-01-30T14:43:03;-0.60;99.90
11446;DHT22;5779;64.178;15.432;2024-01-30T14:45:50;-0.70;99.90
11446;DHT22;5779;64.178;15.432;2024-01-30T14:48:37;-0.80;99.90
11446;DHT22;5779;64.178;15.432;2024-01-30T14:51:24;-0.90;99.90
11446;DHT22;5779;64.178;15.432;2024-01-30T14:54:17;-1.00;99.90
11446;DHT22;5779;64.178;15.432;2024-01-30T14:57:05;-1.20;99.90
11446;DHT22;5779;64.178;15.432;2024-01-30T15:00:01;-1.20;99.90
11446;DHT22;5779;64.178;15.432;2024-01-30T15:02:51;-1.10;99.90
11446;DHT22;5779;64.178;15.432;2024-01-30T15:05:41;-1.20;99.90
11446;DHT22;5779;64.178;15.432;2024-01-30T15:08:29;-1.40;99.90
11446;DHT22;5779;64.178;15.432;2024-01-30T15:11:16;-1.40;99.90
11446;DHT22;5779;64.178;15.432;2024-01-30T15:14:04;-1.40;99.90
11446;DHT22;5779;64.178;15.432;2024-01-30T15:16:51;-1.60;99.90
11446;DHT22;5779;64.178;15.432;2024-01-30T15:19:40;-1.80;99.90
11446;DHT22;5779;64.178;15.432;2024-01-30T15:22:29;-2.60;99.90
11446;DHT22;5779;64.178;15.432;2024-01-30T15:25:17;-3.10;99.90
11446;DHT22;5779;64.178;15.432;2024-01-30T15:28:04;-3.50;99.90
11446;DHT22;5779;64.178;15.432;2024-01-30T15:30:53;-3.70;99.90
11446;DHT22;5779;64.178;15.432;2024-01-30T15:33:43;-3.80;99.90
11446;DHT22;5779;64.178;15.432;2024-01-30T15:36:31;-3.60;99.90
11446;DHT22;5779;64.178;15.432;2024-01-30T15:39:20;-3.70;99.90
11446;DHT22;5779;64.178;15.432;2024-01-30T15:42:09;-3.50;99.90
11446;DHT22;5779;64.178;15.432;2024-01-30T15:44:59;-3.30;99.90
11446;DHT22;5779;64.178;15.432;2024-01-30T15:47:52;-3.20;99.90
11446;DHT22;5779;64.178;15.432;2024-01-30T15:50:42;-3.10;99.90
11446;DHT22;5779;64.178;15.432;2024-01-30T15:53:32;-3.00;99.90
11446;DHT22;5779;64.178;15.432;2024-01-30T15:56:20;-2.90;99.90
11446;DHT22;5779;64.178;15.432;2024-01-30T15:59:10;-2.80;99.90
11446;DHT22;5779;64.178;15.432;2024-01-30T16:01:57;-2.70;99.90
11446;DHT22;5779;64.178;15.432;2024-01-30T16:04:49;-2.60;99.90
11446;DHT22;5779;64.178;15.432;2024-01-30T16:07:39;-2.60;99.90
11446;DHT22;5779;64.178;15.432;2024-01-30T16:10:28;-2.50;99.90
11446;DHT22;5779;64.178;15.432;2024-01-30T16:13:21;-2.50;99.90
11446;DHT22;5779;64.178;15.432;2024-01-30T16:16:09;-2.70;99.90
11446;DHT22;5779;64.178;15.432;2024-01-30T16:19:00;-2.70;99.90
11446;DHT22;5779;64.178;15.432;2024-01-30T16:21:47;-2.60;99.90
11446;DHT22;5779;64.178;15.432;2024-01-30T16:24:38;-2.70;99.90
11446;DHT22;5779;64.178;15.432;2024-01-30T16:27:29;-2.70;99.90
11446;DHT22;5779;64.178;15.432;2024-01-30T16:30:18;-2.80;99.90
11446;DHT22;5779;64.178;15.432;2024-01-30T16:33:07;-2.80;99.90
11446;DHT22;5779;64.178;15.432;2024-01-30T16:35:57;-2.80;99.90
11446;DHT22;5779;64.178;15.432;2024-01-30T16:38:47;-2.90;99.90
11446;DHT22;5779;64.178;15.432;2024-01-30T16:41:40;-3.00;99.90
11446;DHT22;5779;64.178;15.432;2024-01-30T16:44:30;-3.10;99.90
11446;DHT22;5779;64.178;15.432;2024-01-30T16:47:21;-3.30;99.90
11446;DHT22;5779;64.178;15.432;2024-01-30T16:50:10;-3.40;99.90
11446;DHT22;5779;64.178;15.432;2024-01-30T16:52:59;-3.60;99.90
11446;DHT22;5779;64.178;15.432;2024-01-30T16:55:52;-3.70;99.90
11446;DHT22;5779;64.178;15.432;2024-01-30T16:58:42;-3.70;99.90
11446;DHT22;5779;64.178;15.432;2024-01-30T17:01:31;-3.70;99.90
11446;DHT22;5779;64.178;15.432;2024-01-30T17:04:20;-3.70;99.90
11446;DHT22;5779;64.178;15.432;2024-01-30T17:07:10;-3.70;99.90
11446;DHT22;5779;64.178;15.432;2024-01-30T17:09:57;-3.90;99.90
11446;DHT22;5779;64.178;15.432;2024-01-30T17:12:44;-4.00;99.90
11446;DHT22;5779;64.178;15.432;2024-01-30T17:15:34;-4.20;99.90
11446;DHT22;5779;64.178;15.432;2024-01-30T17:18:23;-4.40;99.90
11446;DHT22;5779;64.178;15.432;2024-01-30T17:21:17;-4.20;99.90
11446;DHT22;5779;64.178;15.432;2024-01-30T17:24:04;-4.10;99.90
11446;DHT22;5779;64.178;15.432;2024-01-30T17:26:52;-3.80;99.90
11446;DHT22;5779;64.178;15.432;2024-01-30T17:29:38;-3.60;99.90
11446;DHT22;5779;64.178;15.432;2024-01-30T17:32:26;-3.50;99.90
11446;DHT22;5779;64.178;15.432;2024-01-30T17:35:17;-4.00;99.90
11446;DHT22;5779;64.178;15.432;2024-01-30T17:38:06;-4.30;99.90
11446;DHT22;5779;64.178;15.432;2024-01-30T17:40:55;-4.50;99.90
11446;DHT22;5779;64.178;15.432;2024-01-30T17:43:47;-4.70;99.90
11446;DHT22;5779;64.178;15.432;2024-01-30T17:46:39;-4.70;99.90
11446;DHT22;5779;64.178;15.432;2024-01-30T17:49:29;-4.60;99.90
11446;DHT22;5779;64.178;15.432;2024-01-30T17:52:16;-4.50;99.90
11446;DHT22;5779;64.178;15.432;2024-01-30T17:55:06;-4.60;99.90
11446;DHT22;5779;64.178;15.432;2024-01-30T17:57:54;-4.60;99.90